Time;durP1;ratioP1;P1;durP2;ratioP2;P2;SDS_P1;SDS_P2;PMS_P1;PMS_P2;Temp;Humidity;BMP_temperature;BMP_pressure;BME280_temperature;BME280_humidity;BME280_pressure;Samples;Min_cycle;Max_cycle;Signal;HPM_P1;HPM_P2
2022/03/21 00:01:12;;;;;;;94.00;59.15;;;6.00;76.80;;;;;;6095907;23;20081;-90
2022/03/21 00:03:38;;;;;;;89.38;58.25;;;8.00;76.40;;;;;;6094777;23;20022;-90
2022/03/21 00:06:03;;;;;;;89.03;57.08;;;6.10;73.00;;;;;;6095675;23;20465;-90
2022/03/21 00:08:29;;;;;;;84.97;55.75;;;6.00;69.10;;;;;;6095263;23;20053;-90
2022/03/21 00:10:57;;;;;;;85.50;55.50;;;6.20;71.50;;;;;;6096065;23;20137;-91
2022/03/21 00:13:23;;;;;;;93.35;56.92;;;6.20;69.40;;;;;;6070421;23;20022;-89
2022/03/21 00:15:50;;;;;;;83.55;53.17;;;6.20;66.20;;;;;;6096092;23;20025;-90
2022/03/21 00:18:18;;;;;;;81.50;54.42;;;6.20;68.30;;;;;;6069960;23;20018;-90
2022/03/21 00:20:49;;;;;;;86.75;53.17;;;6.20;64.10;;;;;;6095155;23;20053;-90
2022/03/21 00:23:15;;;;;;;85.80;52.40;;;7.60;68.40;;;;;;6095701;23;20461;-90
2022/03/21 00:25:42;;;;;;;76.80;52.70;;;6.30;66.10;;;;;;6095558;23;20054;-90
2022/03/21 00:28:09;;;;;;;81.43;52.15;;;6.20;65.00;;;;;;6095577;23;20037;-90
2022/03/21 00:30:37;;;;;;;88.47;52.88;;;7.60;68.20;;;;;;6093677;23;20023;-90
2022/03/21 00:33:07;;;;;;;90.88;54.35;;;6.30;69.30;;;;;;6093870;23;20148;-90
2022/03/21 00:35:34;;;;;;;86.70;52.60;;;6.30;74.80;;;;;;6094788;23;20034;-90
2022/03/21 00:38:00;;;;;;;79.13;50.23;;;7.70;71.00;;;;;;6095617;23;20029;-90
2022/03/21 00:40:26;;;;;;;82.60;51.90;;;6.80;65.70;;;;;;6093299;23;20027;-90
2022/03/21 00:42:51;;;;;;;81.13;50.47;;;7.00;74.00;;;;;;6095951;23;20338;-91
2022/03/21 00:45:20;;;;;;;78.00;48.75;;;6.80;69.80;;;;;;6093390;23;20023;-90
2022/03/21 00:47:47;;;;;;;83.85;48.03;;;6.50;65.30;;;;;;6068415;23;20018;-90
2022/03/21 00:50:15;;;;;;;80.57;48.75;;;7.60;63.40;;;;;;6094983;23;20022;-90
2022/03/21 00:52:47;;;;;;;78.50;48.42;;;7.90;63.80;;;;;;6069143;23;20105;-89
2022/03/21 00:55:13;;;;;;;81.80;49.00;;;6.40;62.40;;;;;;6094713;23;20097;-90
2022/03/21 00:57:40;;;;;;;78.15;47.97;;;8.00;62.80;;;;;;6068428;23;20022;-89
2022/03/21 01:00:09;;;;;;;77.60;48.30;;;6.30;63.10;;;;;;6068887;23;20014;-89
2022/03/21 01:02:36;;;;;;;75.13;46.80;;;6.30;61.80;;;;;;6093599;23;20085;-89
2022/03/21 01:05:02;;;;;;;70.07;43.63;;;6.30;61.70;;;;;;6094358;23;20358;-89
2022/03/21 01:07:31;;;;;;;76.63;46.10;;;6.30;59.20;;;;;;6093818;23;20025;-89
2022/03/21 01:09:57;;;;;;;75.45;45.25;;;6.20;60.00;;;;;;6068273;23;20120;-89
2022/03/21 01:12:24;;;;;;;70.18;43.05;;;6.20;71.50;;;;;;6094152;23;20116;-89
2022/03/21 01:14:49;;;;;;;66.22;40.35;;;6.90;77.00;;;;;;6067745;23;20440;-89
2022/03/21 01:17:15;;;;;;;64.88;40.28;;;7.90;76.50;;;;;;6094354;23;20054;-90
2022/03/21 01:19:41;;;;;;;65.72;40.45;;;4.60;74.80;;;;;;6091890;23;20018;-88
2022/03/21 01:22:06;;;;;;;63.13;40.22;;;7.70;68.40;;;;;;6094454;23;20174;-88
2022/03/21 01:24:35;;;;;;;63.05;38.33;;;6.40;71.60;;;;;;6068876;23;20023;-88
2022/03/21 01:27:03;;;;;;;58.38;36.33;;;6.30;75.70;;;;;;6093953;23;20393;-89
2022/03/21 01:29:29;;;;;;;55.70;35.17;;;6.30;75.60;;;;;;6094237;23;20429;-89
2022/03/21 01:31:54;;;;;;;54.90;34.65;;;7.50;75.40;;;;;;6093913;23;20064;-90
2022/03/21 01:34:20;;;;;;;58.08;34.60;;;8.20;83.20;;;;;;6093522;23;20023;-89
2022/03/21 01:36:46;;;;;;;62.08;35.75;;;6.40;87.50;;;;;;6068795;23;20081;-89
2022/03/21 01:39:12;;;;;;;60.88;32.78;;;6.30;86.20;;;;;;6094471;23;20041;-89
2022/03/21 01:41:38;;;;;;;53.92;31.88;;;7.80;87.70;;;;;;6093867;23;20105;-90
2022/03/21 01:44:06;;;;;;;51.67;31.45;;;7.90;85.80;;;;;;6094371;23;20457;-89
2022/03/21 01:46:33;;;;;;;51.63;31.15;;;6.10;92.60;;;;;;6094658;23;20398;-90
2022/03/21 01:49:00;;;;;;;54.40;31.55;;;6.00;95.30;;;;;;6068035;23;20058;-91
2022/03/21 01:51:26;;;;;;;53.35;30.42;;;;;;;;;;6044551;23;20094;-90
2022/03/21 01:56:40;;;;;;;49.03;31.40;;;6.10;97.90;;;;;;6094069;23;20105;-93
2022/03/21 01:59:07;;;;;;;49.25;30.27;;;6.00;99.90;;;;;;6094315;23;20054;-91
2022/03/21 02:01:33;;;;;;;51.00;29.95;;;6.00;98.00;;;;;;6045559;23;20065;-90
2022/03/21 02:03:59;;;;;;;52.63;30.35;;;7.50;96.30;;;;;;6068606;23;20026;-90
2022/03/21 02:06:28;;;;;;;51.85;30.42;;;5.90;99.90;;;;;;6067804;23;20033;-90
2022/03/21 02:08:59;;;;;;;50.63;29.85;;;5.70;99.90;;;;;;6044554;23;20061;-91
2022/03/21 02:11:26;;;;;;;49.95;28.25;;;5.70;99.90;;;;;;6068342;23;20027;-90
2022/03/21 02:14:03;;;;;;;49.53;29.13;;;5.50;99.90;;;;;;6095014;23;20025;-90
2022/03/21 02:16:31;;;;;;;47.13;28.38;;;5.40;99.90;;;;;;6094337;23;20106;-91
2022/03/21 02:19:31;;;;;;;42.13;26.63;;;5.50;99.90;;;;;;6094047;23;20021;-90
2022/03/21 02:22:21;;;;;;;51.90;29.23;;;5.40;99.90;;;;;;6063414;23;20418;-90
2022/03/21 02:24:47;;;;;;;47.78;29.10;;;5.40;99.90;;;;;;6092381;23;20025;-91
2022/03/21 02:27:15;;;;;;;47.67;27.27;;;7.50;99.90;;;;;;6094148;23;20034;-91
2022/03/21 02:29:43;;;;;;;53.45;29.45;;;5.20;99.90;;;;;;6094100;23;20418;-91
2022/03/21 02:32:09;;;;;;;45.75;26.23;;;6.70;99.90;;;;;;6094562;23;20026;-90
2022/03/21 02:34:39;;;;;;;47.65;27.13;;;5.30;99.90;;;;;;6068896;23;20019;-90
2022/03/21 02:37:09;;;;;;;49.15;27.70;;;5.50;99.90;;;;;;6094147;23;20125;-90
2022/03/21 02:39:36;;;;;;;48.00;27.92;;;5.30;99.90;;;;;;6068285;23;20022;-89
2022/03/21 02:42:04;;;;;;;45.50;25.35;;;6.10;99.90;;;;;;6094419;23;20038;-90
2022/03/21 02:44:37;;;;;;;44.50;25.15;;;5.30;99.90;;;;;;6096727;23;20022;-90
2022/03/21 02:47:04;;;;;;;44.13;26.35;;;6.90;99.90;;;;;;6048196;23;20113;-91
2022/03/21 02:49:30;;;;;;;46.45;26.25;;;5.40;99.90;;;;;;6114917;23;20034;-89
2022/03/21 02:51:57;;;;;;;49.20;23.77;;;5.30;99.90;;;;;;6116894;23;20074;-88
2022/03/21 02:54:24;;;;;;;45.75;26.63;;;5.30;99.90;;;;;;6117574;23;20026;-88
2022/03/21 02:56:50;;;;;;;47.22;25.25;;;5.20;99.90;;;;;;6067493;23;20030;-92
2022/03/21 02:59:17;;;;;;;51.03;25.58;;;5.20;99.90;;;;;;6121561;23;20022;-90
2022/03/21 03:01:44;;;;;;;43.35;25.52;;;6.70;99.90;;;;;;6120455;23;20019;-89
2022/03/21 03:04:11;;;;;;;50.30;25.25;;;6.60;99.90;;;;;;6095548;23;20022;-90
2022/03/21 03:06:39;;;;;;;46.22;25.45;;;5.00;99.90;;;;;;6118417;23;20049;-90
2022/03/21 03:09:08;;;;;;;40.67;24.70;;;5.90;99.90;;;;;;6117691;23;20323;-90
2022/03/21 03:11:38;;;;;;;39.30;23.08;;;5.00;99.90;;;;;;6108085;23;20060;-89
2022/03/21 03:14:05;;;;;;;39.80;24.23;;;6.60;99.90;;;;;;6093449;23;20070;-89
2022/03/21 03:16:31;;;;;;;45.78;23.88;;;4.80;99.90;;;;;;6068803;23;20038;-89
2022/03/21 03:18:57;;;;;;;48.47;25.48;;;4.70;99.90;;;;;;6093768;23;20098;-89
2022/03/21 03:21:30;;;;;;;42.50;23.58;;;4.70;99.90;;;;;;6093226;23;20026;-88
2022/03/21 03:23:59;;;;;;;43.00;25.42;;;5.10;99.90;;;;;;6093508;23;20022;-88
2022/03/21 03:26:24;;;;;;;46.65;25.15;;;6.40;99.90;;;;;;6069841;23;20030;-89
2022/03/21 03:28:50;;;;;;;45.33;25.10;;;4.60;99.90;;;;;;6095076;23;20165;-89
2022/03/21 03:31:17;;;;;;;48.65;24.83;;;4.60;99.90;;;;;;6095653;23;20018;-88
2022/03/21 03:33:45;;;;;;;42.85;23.77;;;4.70;99.90;;;;;;6095439;23;20026;-87
2022/03/21 03:36:11;;;;;;;44.03;24.67;;;;;;;;;;6094462;23;20022;-87
2022/03/21 03:38:37;;;;;;;40.45;23.90;;;4.70;99.90;;;;;;6069732;23;20025;-88
2022/03/21 03:41:03;;;;;;;45.75;24.70;;;;;;;;;;6069980;23;20018;-88
2022/03/21 03:43:32;;;;;;;44.28;24.27;;;4.40;99.90;;;;;;6095270;23;20458;-88
2022/03/21 03:45:58;;;;;;;44.67;25.17;;;5.10;99.90;;;;;;6095542;23;20023;-88
2022/03/21 03:48:25;;;;;;;42.78;23.88;;;5.20;99.90;;;;;;6095901;23;20026;-88
2022/03/21 03:50:51;;;;;;;44.47;24.65;;;4.20;99.90;;;;;;6095273;23;20337;-88
2022/03/21 03:53:18;;;;;;;47.95;25.20;;;5.20;99.90;;;;;;6096139;23;20041;-88
2022/03/21 03:55:44;;;;;;;43.50;24.42;;;4.40;99.90;;;;;;6070970;23;20037;-90
2022/03/21 03:58:10;;;;;;;45.85;24.55;;;4.80;99.90;;;;;;6095438;23;20022;-89
2022/03/21 04:00:36;;;;;;;45.53;25.48;;;4.50;99.90;;;;;;6070264;23;20480;-89
2022/03/21 04:05:46;;;;;;;53.45;26.80;;;5.80;99.90;;;;;;6094682;23;20022;-89
2022/03/21 04:08:12;;;;;;;43.30;25.10;;;4.20;99.90;;;;;;6095970;23;20058;-88
2022/03/21 04:10:38;;;;;;;56.03;26.50;;;;;;;;;;6096232;23;20089;-89
2022/03/21 04:13:04;;;;;;;45.28;26.77;;;3.80;99.90;;;;;;6095669;23;20410;-89
2022/03/21 04:15:30;;;;;;;55.45;29.08;;;4.70;99.90;;;;;;6095769;23;20022;-88
2022/03/21 04:18:04;;;;;;;56.00;28.83;;;4.40;99.90;;;;;;6069759;23;20093;-89
2022/03/21 04:20:31;;;;;;;54.72;28.75;;;;;;;;;;6096036;23;20014;-89
2022/03/21 04:23:00;;;;;;;51.35;28.10;;;4.50;99.90;;;;;;6069367;23;20019;-89
2022/03/21 04:25:26;;;;;;;50.13;26.67;;;4.70;99.90;;;;;;6095485;23;20026;-89
2022/03/21 04:27:52;;;;;;;50.88;27.02;;;5.30;99.90;;;;;;6095951;23;20477;-89
2022/03/21 04:30:18;;;;;;;46.28;27.02;;;4.40;99.90;;;;;;6095169;23;20022;-89
2022/03/21 04:32:44;;;;;;;55.30;28.77;;;6.00;99.90;;;;;;6095623;23;20015;-89
2022/03/21 04:35:11;;;;;;;54.17;29.17;;;6.70;99.90;;;;;;6095543;23;20449;-89
2022/03/21 04:37:37;;;;;;;47.45;27.33;;;6.50;99.90;;;;;;6096164;23;20026;-89
2022/03/21 04:40:05;;;;;;;48.80;27.95;;;3.50;99.90;;;;;;6095436;23;20018;-89
2022/03/21 04:42:31;;;;;;;55.83;28.52;;;4.50;99.90;;;;;;6096208;23;20049;-89
2022/03/21 04:44:56;;;;;;;60.58;27.73;;;4.60;99.90;;;;;;6070121;23;20438;-90
2022/03/21 04:47:22;;;;;;;46.90;27.30;;;5.70;99.90;;;;;;6095123;23;20018;-89
2022/03/21 04:49:48;;;;;;;57.83;27.52;;;4.30;99.90;;;;;;6093354;23;20025;-89
2022/03/21 04:52:14;;;;;;;52.30;29.27;;;5.80;99.90;;;;;;6094722;23;20429;-89
2022/03/21 04:54:40;;;;;;;50.40;26.92;;;5.30;99.90;;;;;;6069876;23;20022;-89
2022/03/21 04:57:08;;;;;;;54.92;27.90;;;3.90;99.90;;;;;;6094806;23;20022;-89
2022/03/21 04:59:34;;;;;;;;;;;4.10;99.90;;;;;;6070223;23;20030;-89
2022/03/21 05:02:01;;;;;;;52.53;27.50;;;4.00;99.90;;;;;;6091391;23;19921;-89
2022/03/21 05:04:27;;;;;;;55.58;28.38;;;3.40;99.90;;;;;;6091285;23;20073;-89
2022/03/21 05:06:54;;;;;;;50.05;26.67;;;6.20;99.90;;;;;;6095066;23;20425;-89
2022/03/21 05:09:20;;;;;;;53.77;25.93;;;3.90;99.90;;;;;;6094074;23;20019;-89
2022/03/21 05:11:46;;;;;;;54.10;26.70;;;3.80;99.90;;;;;;6095609;23;20025;-89
2022/03/21 05:14:11;;;;;;;55.92;26.25;;;2.20;99.90;;;;;;6094290;23;20306;-89
2022/03/21 05:16:38;;;;;;;59.85;26.55;;;4.10;99.90;;;;;;6067999;23;20048;-89
2022/03/21 05:19:04;;;;;;;50.03;25.83;;;3.50;99.90;;;;;;6092840;23;20018;-90
2022/03/21 05:21:30;;;;;;;49.40;26.23;;;4.70;99.90;;;;;;6093287;23;20026;-89
2022/03/21 05:32:09;;;;;;;42.83;24.77;;;4.80;99.90;;;;;;6094564;23;20442;-88
2022/03/21 05:37:19;;;;;;;67.28;24.75;;;;;;;;;;6068705;23;20070;-87
2022/03/21 05:42:29;;;;;;;45.30;26.50;;;3.10;99.90;;;;;;6067766;23;20022;-87
2022/03/21 05:44:54;;;;;;;45.53;25.95;;;4.40;99.90;;;;;;6069062;23;20018;-88
2022/03/21 05:47:20;;;;;;;55.38;27.90;;;1.40;99.90;;;;;;6094220;23;20022;-87
2022/03/21 05:49:46;;;;;;;60.97;28.63;;;;;;;;;;6069131;23;20407;-87
2022/03/21 05:52:13;;;;;;;58.17;29.10;;;3.10;99.90;;;;;;6094376;23;20128;-87
2022/03/21 05:54:40;;;;;;;61.08;30.77;;;4.20;99.90;;;;;;6094770;23;20019;-88
2022/03/21 05:57:11;;;;;;;63.90;30.63;;;3.20;99.90;;;;;;6070373;23;20082;-88
2022/03/21 06:00:38;;;;;;;68.10;31.27;;;3.30;99.90;;;;;;6095019;23;20018;-88
2022/03/21 06:02:32;;;;;;;63.05;27.88;;;3.20;99.90;;;;;;6081818;23;20026;-87
2022/03/21 06:05:00;;;;;;;57.92;29.58;;;5.00;99.90;;;;;;6094402;23;20022;-86
2022/03/21 06:07:26;;;;;;;59.30;30.55;;;4.90;99.90;;;;;;6094164;23;20081;-88
2022/03/21 06:09:52;;;;;;;57.35;30.92;;;3.20;99.90;;;;;;6068592;23;20101;-88
2022/03/21 06:12:18;;;;;;;57.83;28.73;;;3.20;99.90;;;;;;6094692;23;20331;-89
2022/03/21 06:14:44;;;;;;;57.20;31.55;;;;;;;;;;6069280;23;20097;-87
2022/03/21 06:17:09;;;;;;;66.10;31.65;;;2.20;99.90;;;;;;6044814;23;20022;-88
2022/03/21 06:19:35;;;;;;;62.03;32.15;;;3.30;99.90;;;;;;6043398;23;20022;-87
2022/03/21 06:22:01;;;;;;;67.85;32.75;;;5.10;99.90;;;;;;6069234;23;20022;-88
2022/03/21 06:24:27;;;;;;;66.30;33.97;;;3.60;1.00;;;;;;6068496;23;20026;-87
2022/03/21 06:26:52;;;;;;;78.70;37.70;;;6.00;1.00;;;;;;6095018;23;20023;-89
2022/03/21 06:29:18;;;;;;;79.97;37.00;;;5.10;1.00;;;;;;6093616;23;20450;-87
2022/03/21 06:31:44;;;;;;;81.05;38.72;;;5.90;1.00;;;;;;6094064;23;20310;-89
2022/03/21 06:34:10;;;;;;;79.32;38.67;;;3.50;1.00;;;;;;6093195;23;20081;-89
2022/03/21 06:36:36;;;;;;;73.90;37.05;;;3.90;1.00;;;;;;6095105;23;20395;-89
2022/03/21 06:39:01;;;;;;;70.47;36.63;;;4.10;1.00;;;;;;6094551;23;20053;-88
2022/03/21 06:41:27;;;;;;;71.55;35.03;;;3.80;1.00;;;;;;6093368;23;20137;-88
2022/03/21 06:43:53;;;;;;;70.78;36.08;;;6.10;1.00;;;;;;6093063;23;20359;-89
2022/03/21 06:46:19;;;;;;;76.30;35.17;;;5.80;1.00;;;;;;6044852;23;20018;-89
2022/03/21 06:48:45;;;;;;;64.40;33.35;;;4.90;1.00;;;;;;6068767;23;20018;-89
2022/03/21 06:51:11;;;;;;;61.13;33.00;;;3.80;1.00;;;;;;6044317;23;20014;-90
2022/03/21 06:53:37;;;;;;;67.57;33.28;;;5.20;1.00;;;;;;6069196;23;20029;-88
2022/03/21 06:56:02;;;;;;;61.72;33.42;;;3.80;1.00;;;;;;6095514;23;20342;-89
2022/03/21 06:58:29;;;;;;;67.03;36.72;;;4.10;1.00;;;;;;6070286;23;20410;-88
2022/03/21 07:00:55;;;;;;;56.83;34.38;;;5.90;1.00;;;;;;6096858;23;20029;-88
2022/03/21 07:03:21;;;;;;;67.00;35.55;;;4.60;1.00;;;;;;6093751;23;20023;-88
2022/03/21 07:05:46;;;;;;;63.97;35.35;;;5.00;1.00;;;;;;6096266;23;20426;-89
2022/03/21 07:08:12;;;;;;;59.58;33.55;;;5.00;99.90;;;;;;6095805;23;20070;-88
2022/03/21 07:10:42;;;;;;;55.63;34.17;;;6.50;99.90;;;;;;6070664;23;20446;-88
2022/03/21 07:13:08;;;;;;;61.30;32.78;;;6.60;99.90;;;;;;6096216;23;20101;-90
2022/03/21 07:15:34;;;;;;;54.90;32.25;;;7.10;99.90;;;;;;6046293;23;20424;-88
2022/03/21 07:18:00;;;;;;;51.83;31.70;;;5.40;99.90;;;;;;6095651;23;20018;-88
2022/03/21 07:20:26;;;;;;;53.58;29.77;;;6.90;99.90;;;;;;6045437;23;20417;-88
2022/03/21 07:22:53;;;;;;;52.45;30.85;;;5.50;99.90;;;;;;6071098;23;20018;-88
2022/03/21 07:25:19;;;;;;;57.10;30.45;;;6.10;99.90;;;;;;6096022;23;20027;-88
2022/03/21 07:27:45;;;;;;;49.00;28.25;;;5.60;99.90;;;;;;6095966;23;20025;-88
2022/03/21 07:30:13;;;;;;;50.40;28.63;;;5.70;99.90;;;;;;6070012;23;20029;-90
2022/03/21 07:32:42;;;;;;;51.17;27.80;;;5.80;99.90;;;;;;6070236;23;20446;-89
2022/03/21 07:35:09;;;;;;;55.17;29.38;;;5.80;99.90;;;;;;6070107;23;20026;-88
2022/03/21 07:37:46;;;;;;;48.78;29.83;;;5.90;99.90;;;;;;6095715;23;20381;-89
2022/03/21 07:40:13;;;;;;;46.22;28.52;;;6.00;99.90;;;;;;6095331;23;20025;-92
2022/03/21 07:42:44;;;;;;;46.85;25.77;;;4.40;99.90;;;;;;6092423;23;20027;-87
2022/03/21 07:47:56;;;;;;;44.55;26.83;;;6.20;96.30;;;;;;6095244;23;20044;-88
2022/03/21 07:50:25;;;;;;;44.25;26.30;;;7.60;81.30;;;;;;6068527;23;20022;-87
2022/03/21 07:52:56;;;;;;;39.58;24.50;;;7.60;81.80;;;;;;6094415;23;20106;-87
2022/03/21 07:55:23;;;;;;;35.75;21.05;;;10.10;2.10;;;;;;6093308;23;20022;-88
2022/03/21 07:57:49;;;;;;;33.85;21.08;;;;;;;;;;6095575;23;20015;-87
2022/03/21 08:00:16;;;;;;;36.22;19.88;;;12.60;1.00;;;;;;6095255;23;20015;-88
2022/03/21 08:02:45;;;;;;;32.58;19.30;;;11.80;1.00;;;;;;6095839;23;20019;-89
2022/03/21 08:05:13;;;;;;;30.88;18.75;;;;;;;;;;6095591;23;20021;-88
2022/03/21 08:07:41;;;;;;;31.60;18.20;;;13.60;1.00;;;;;;6096494;23;20030;-87
2022/03/21 08:10:08;;;;;;;28.35;17.80;;;14.40;1.00;;;;;;6095722;23;20330;-89
2022/03/21 08:12:35;;;;;;;29.20;17.15;;;14.70;1.00;;;;;;6069845;23;20035;-88
2022/03/21 08:15:01;;;;;;;31.17;18.98;;;15.80;1.00;;;;;;6095379;23;20026;-88
2022/03/21 08:17:27;;;;;;;33.50;18.75;;;16.70;1.00;;;;;;6095172;23;20353;-88
2022/03/21 08:19:53;;;;;;;29.95;17.48;;;16.40;1.00;;;;;;6046026;23;20326;-89
2022/03/21 08:22:22;;;;;;;31.42;17.98;;;15.90;1.00;;;;;;6095265;23;20464;-88
2022/03/21 08:24:52;;;;;;;31.05;17.55;;;16.00;1.00;;;;;;6095980;23;20112;-88
2022/03/21 08:27:17;;;;;;;28.33;16.60;;;16.90;1.00;;;;;;6069574;23;20324;-88
2022/03/21 08:29:43;;;;;;;31.52;17.88;;;17.10;1.00;;;;;;6095955;23;20083;-88
2022/03/21 08:32:09;;;;;;;29.73;16.58;;;17.70;1.00;;;;;;6070700;23;20025;-88
2022/03/21 08:34:35;;;;;;;32.92;18.13;;;18.10;1.00;;;;;;6068012;23;20022;-88
2022/03/21 08:37:01;;;;;;;28.38;16.55;;;18.30;1.00;;;;;;6094182;23;20025;-89
2022/03/21 08:39:27;;;;;;;29.88;17.55;;;17.80;1.00;;;;;;6094235;23;20129;-88
2022/03/21 08:41:52;;;;;;;28.67;17.65;;;18.30;1.00;;;;;;6070125;23;20127;-88
2022/03/21 08:44:19;;;;;;;31.90;18.33;;;19.20;1.00;;;;;;6094507;23;20105;-88
2022/03/21 08:46:46;;;;;;;33.55;18.30;;;20.00;1.00;;;;;;6095484;23;20086;-88
2022/03/21 08:49:24;;;;;;;32.00;18.50;;;20.00;1.00;;;;;;6067337;23;20026;-89
2022/03/21 08:51:50;;;;;;;31.45;17.25;;;19.10;1.00;;;;;;6095642;23;20014;-88
2022/03/21 08:54:16;;;;;;;34.50;18.60;;;19.10;1.00;;;;;;6068496;23;20105;-91
2022/03/21 08:56:42;;;;;;;27.58;17.23;;;18.60;1.00;;;;;;6093757;23;20089;-89
2022/03/21 08:59:09;;;;;;;29.25;17.95;;;18.90;1.00;;;;;;6094807;23;20026;-87
2022/03/21 09:01:35;;;;;;;32.72;17.52;;;19.60;1.00;;;;;;6094520;23;20030;-90
2022/03/21 09:04:03;;;;;;;31.13;17.48;;;19.20;1.00;;;;;;6069366;23;20029;-89
2022/03/21 09:06:29;;;;;;;26.48;16.77;;;18.70;1.00;;;;;;6094465;23;20525;-89
2022/03/21 09:08:58;;;;;;;31.58;17.55;;;18.70;1.00;;;;;;6069644;23;20041;-89
2022/03/21 09:11:26;;;;;;;26.95;15.80;;;18.70;1.00;;;;;;6068767;23;20018;-89
2022/03/21 09:13:52;;;;;;;28.73;16.00;;;18.80;1.00;;;;;;6070026;23;20023;-90
2022/03/21 09:16:18;;;;;;;30.85;17.15;;;19.40;1.00;;;;;;6069502;23;20468;-91
2022/03/21 09:18:43;;;;;;;37.97;18.17;;;19.80;1.00;;;;;;6068865;23;20070;-86
2022/03/21 09:21:10;;;;;;;28.27;17.42;;;20.10;1.00;;;;;;6068964;23;20018;-86
2022/03/21 09:23:37;;;;;;;29.67;17.63;;;20.30;1.00;;;;;;6094166;23;20022;-86
2022/03/21 09:26:05;;;;;;;29.60;17.05;;;20.70;1.00;;;;;;6095045;23;20254;-86
2022/03/21 09:28:31;;;;;;;;;;;20.10;1.00;;;;;;6045255;23;20026;-87
2022/03/21 09:30:57;;;;;;;30.15;18.23;;;19.70;1.00;;;;;;6095189;23;20026;-87
2022/03/21 09:33:23;;;;;;;31.23;17.60;;;19.40;1.00;;;;;;6093402;23;20054;-86
2022/03/21 09:35:49;;;;;;;31.40;17.58;;;19.70;1.00;;;;;;6093940;23;20030;-86
2022/03/21 09:38:17;;;;;;;28.85;17.42;;;19.80;1.00;;;;;;6094799;23;20029;-87
2022/03/21 09:40:44;;;;;;;32.25;17.45;;;20.50;1.00;;;;;;6093568;23;20030;-87
2022/03/21 09:43:10;;;;;;;30.90;18.33;;;20.10;1.00;;;;;;6095123;23;20403;-88
2022/03/21 09:45:39;;;;;;;27.58;17.25;;;20.30;1.00;;;;;;6067838;23;20019;-87
2022/03/21 09:48:11;;;;;;;31.63;17.55;;;20.50;99.90;;;;;;6094577;23;20018;-87
2022/03/21 09:50:40;;;;;;;28.10;17.92;;;20.80;99.90;;;;;;6093535;23;20045;-86
2022/03/21 09:53:11;;;;;;;29.92;18.00;;;20.10;99.90;;;;;;6094860;23;20026;-86
2022/03/21 09:55:37;;;;;;;27.55;16.92;;;19.60;99.90;;;;;;6068243;23;20458;-87
2022/03/21 09:58:03;;;;;;;29.90;18.95;;;20.30;1.00;;;;;;6068858;23;20053;-87
2022/03/21 10:00:30;;;;;;;28.05;16.13;;;20.60;99.90;;;;;;6068352;23;20021;-86
2022/03/21 10:02:59;;;;;;;31.92;17.48;;;21.60;1.00;;;;;;6093428;23;20074;-87
2022/03/21 10:05:36;;;;;;;29.73;17.17;;;22.00;99.90;;;;;;6092895;23;20054;-87
2022/03/21 10:08:38;;;;;;;28.00;17.50;;;22.70;99.90;;;;;;6093647;23;20497;-87
2022/03/21 10:11:05;;;;;;;30.50;17.33;;;22.50;99.90;;;;;;6064285;23;20033;-88
2022/03/21 10:13:39;;;;;;;27.55;17.17;;;23.60;99.90;;;;;;6066915;23;20034;-88
2022/03/21 10:16:13;;;;;;;25.80;17.13;;;22.70;99.90;;;;;;6094563;23;20045;-87
2022/03/21 10:18:57;;;;;;;31.13;16.60;;;22.50;99.90;;;;;;6093183;23;20022;-87
2022/03/21 10:21:29;;;;;;;29.42;17.67;;;21.70;99.90;;;;;;6067319;23;20053;-87
2022/03/21 10:23:59;;;;;;;29.65;16.80;;;20.60;99.90;;;;;;6094263;23;20029;-89
2022/03/21 10:26:54;;;;;;;26.30;16.67;;;20.60;99.90;;;;;;6067600;23;20520;-89
2022/03/21 10:29:20;;;;;;;25.00;16.08;;;21.50;99.90;;;;;;6063563;23;20029;-87
2022/03/21 10:31:50;;;;;;;28.58;17.40;;;22.90;99.90;;;;;;6069056;23;20022;-88
2022/03/21 10:34:34;;;;;;;28.27;17.42;;;23.10;99.90;;;;;;6094697;23;20060;-87
2022/03/21 10:37:14;;;;;;;29.02;16.60;;;22.30;99.90;;;;;;6071081;23;20022;-88
2022/03/21 10:39:50;;;;;;;26.17;17.00;;;22.00;99.90;;;;;;6095035;23;20010;-88
2022/03/21 10:42:16;;;;;;;25.70;16.30;;;22.10;99.90;;;;;;6096352;23;20058;-87
2022/03/21 10:44:54;;;;;;;27.13;16.13;;;21.20;99.90;;;;;;6095693;23;20022;-87
2022/03/21 10:47:20;;;;;;;28.45;16.67;;;21.20;99.90;;;;;;6095498;23;20025;-86
2022/03/21 10:49:45;;;;;;;25.73;16.55;;;21.80;99.90;;;;;;6095680;23;20093;-86
2022/03/21 10:52:19;;;;;;;26.08;15.70;;;22.60;99.90;;;;;;6096614;23;20018;-85
2022/03/21 10:54:49;;;;;;;27.42;15.70;;;23.40;99.90;;;;;;6095919;23;20018;-87
2022/03/21 10:57:27;;;;;;;23.77;16.25;;;24.30;99.90;;;;;;6070603;23;20434;-87
2022/03/21 11:00:16;;;;;;;27.53;15.97;;;24.80;99.90;;;;;;6096176;23;20055;-86
2022/03/21 11:02:49;;;;;;;;;;;24.00;99.90;;;;;;6070908;23;20149;-86
2022/03/21 11:05:16;;;;;;;25.63;16.27;;;22.00;99.90;;;;;;6070403;23;19924;-87
2022/03/21 11:07:42;;;;;;;25.90;15.63;;;22.70;99.90;;;;;;6096179;23;20025;-86
2022/03/21 11:10:08;;;;;;;27.77;16.67;;;22.70;99.90;;;;;;6071030;23;20054;-86
2022/03/21 11:12:35;;;;;;;28.83;16.23;;;23.00;99.90;;;;;;6096173;23;20034;-86
2022/03/21 11:15:04;;;;;;;28.40;15.93;;;24.50;99.90;;;;;;6023417;23;20027;-87
2022/03/21 11:17:32;;;;;;;26.40;16.98;;;23.40;99.90;;;;;;6070622;23;20029;-88
2022/03/21 11:20:00;;;;;;;22.73;15.63;;;23.10;99.90;;;;;;6096265;23;20057;-86
2022/03/21 11:22:28;;;;;;;25.88;16.13;;;24.20;99.90;;;;;;6097907;23;20018;-86
2022/03/21 11:24:59;;;;;;;28.60;16.42;;;24.30;99.90;;;;;;6097453;23;20018;-86
2022/03/21 11:27:45;;;;;;;25.75;16.52;;;23.30;99.90;;;;;;6070762;23;20469;-86
2022/03/21 11:30:43;;;;;;;26.83;16.02;;;24.70;99.90;;;;;;6052601;23;20019;-86
2022/03/21 11:33:43;;;;;;;25.73;16.27;;;25.70;99.90;;;;;;6098921;23;20026;-87
2022/03/21 11:36:10;;;;;;;27.80;16.77;;;26.80;99.90;;;;;;6103992;23;20093;-84
2022/03/21 11:38:41;;;;;;;;;;;25.50;99.90;;;;;;6115731;23;20023;-84
2022/03/21 11:41:30;;;;;;;29.50;16.83;;;25.70;99.90;;;;;;6116693;23;19941;-85
2022/03/21 11:44:05;;;;;;;;;;;26.20;99.90;;;;;;6118089;23;20027;-86
2022/03/21 11:46:36;;;;;;;28.17;16.15;;;26.40;99.90;;;;;;6117412;23;19917;-87
2022/03/21 11:49:28;;;;;;;27.00;15.63;;;27.00;99.90;;;;;;6116251;23;20021;-83
2022/03/21 11:51:55;;;;;;;28.25;16.45;;;28.00;99.90;;;;;;6102121;23;20394;-86
2022/03/21 11:54:39;;;;;;;25.50;16.02;;;28.50;99.90;;;;;;6116306;23;20022;-85
2022/03/21 11:57:07;;;;;;;25.50;15.02;;;28.00;99.90;;;;;;6094307;23;20018;-90
2022/03/21 11:59:36;;;;;;;;;;;26.60;99.90;;;;;;6092945;23;20021;-85
2022/03/21 12:02:24;;;;;;;26.25;14.30;;;26.10;99.90;;;;;;6117577;23;19928;-86
2022/03/21 12:04:57;;;;;;;25.15;14.23;;;26.20;99.90;;;;;;6049179;23;20034;-86
2022/03/21 12:07:23;;;;;;;25.17;15.18;;;25.80;99.90;;;;;;6115813;23;20073;-86
2022/03/21 12:09:54;;;;;;;26.75;16.52;;;24.40;99.90;;;;;;6073049;23;20022;-87
2022/03/21 12:12:39;;;;;;;29.95;17.02;;;22.40;99.90;;;;;;6071414;23;20022;-86
2022/03/21 12:15:16;;;;;;;28.23;16.48;;;20.40;99.90;;;;;;6070060;23;20023;-86
2022/03/21 12:17:50;;;;;;;33.42;17.40;;;19.60;99.90;;;;;;6094785;23;20018;-87
2022/03/21 12:20:19;;;;;;;29.10;16.75;;;18.80;99.90;;;;;;6094138;23;20025;-86
2022/03/21 12:22:48;;;;;;;34.00;16.80;;;18.10;99.90;;;;;;6094826;23;20014;-86
2022/03/21 12:25:29;;;;;;;28.65;17.08;;;17.80;99.90;;;;;;6094198;23;20503;-86
2022/03/21 12:27:55;;;;;;;33.95;17.25;;;17.70;99.90;;;;;;6095189;23;20030;-86
2022/03/21 12:30:22;;;;;;;30.10;16.83;;;17.50;99.90;;;;;;6095373;23;20014;-85
2022/03/21 12:32:51;;;;;;;32.80;17.17;;;17.20;99.90;;;;;;6094633;23;20018;-86
2022/03/21 12:35:32;;;;;;;28.73;17.23;;;17.00;99.90;;;;;;6094583;23;20014;-85
2022/03/21 12:38:06;;;;;;;38.25;19.10;;;16.80;99.90;;;;;;6095591;23;20018;-87
2022/03/21 12:40:34;;;;;;;32.28;17.42;;;16.70;99.90;;;;;;6094522;23;20145;-85
2022/03/21 12:43:00;;;;;;;;;;;16.80;99.90;;;;;;6095964;23;20386;-85
2022/03/21 12:45:29;;;;;;;31.05;17.40;;;16.70;99.90;;;;;;6069001;23;19917;-86
2022/03/21 12:48:00;;;;;;;38.55;18.67;;;16.30;99.90;;;;;;6093953;23;20520;-86
2022/03/21 12:50:27;;;;;;;34.92;17.52;;;16.00;99.90;;;;;;6094944;23;20280;-85
2022/03/21 12:52:58;;;;;;;37.67;17.90;;;15.70;99.90;;;;;;6094248;23;20019;-86
2022/03/21 12:55:25;;;;;;;29.38;17.55;;;15.60;99.90;;;;;;6094378;23;20449;-85
2022/03/21 12:58:03;;;;;;;32.58;18.25;;;15.50;99.90;;;;;;6094598;23;20026;-86
2022/03/21 13:00:34;;;;;;;38.03;20.27;;;15.50;99.90;;;;;;6095055;23;20129;-85
2022/03/21 13:03:06;;;;;;;31.20;17.48;;;15.50;99.90;;;;;;6069440;23;20029;-86
2022/03/21 13:11:28;;;;;;;31.23;18.38;;;15.50;99.90;;;;;;6094781;23;20343;-86
2022/03/21 13:13:56;;;;;;;35.20;18.27;;;15.50;99.90;;;;;;6094399;23;20026;-86
2022/03/21 13:16:23;;;;;;;29.55;18.42;;;15.60;99.90;;;;;;6094504;23;20045;-86